sensor_id;sensor_type;location;lat;lon;timestamp;P1;durP1;ratioP1;P2;durP2;ratioP2
56075;SDS011;41951;49.022;12.066;2024-03-07T00:02:19;41.28;;;22.08;;
56075;SDS011;41951;49.022;12.066;2024-03-07T00:04:44;39.83;;;22.15;;
56075;SDS011;41951;49.022;12.066;2024-03-07T00:07:10;38.30;;;21.48;;
56075;SDS011;41951;49.022;12.066;2024-03-07T00:09:36;41.22;;;22.30;;
56075;SDS011;41951;49.022;12.066;2024-03-07T00:12:02;38.63;;;22.48;;
56075;SDS011;41951;49.022;12.066;2024-03-07T00:14:29;40.08;;;21.92;;
56075;SDS011;41951;49.022;12.066;2024-03-07T00:17:00;42.90;;;22.50;;
56075;SDS011;41951;49.022;12.066;2024-03-07T00:19:26;39.05;;;22.13;;
56075;SDS011;41951;49.022;12.066;2024-03-07T00:21:55;40.90;;;21.98;;
56075;SDS011;41951;49.022;12.066;2024-03-07T00:24:21;35.03;;;20.38;;
56075;SDS011;41951;49.022;12.066;2024-03-07T00:26:48;41.50;;;21.75;;
56075;SDS011;41951;49.022;12.066;2024-03-07T00:29:17;38.88;;;21.75;;
56075;SDS011;41951;49.022;12.066;2024-03-07T00:31:44;42.00;;;22.33;;
56075;SDS011;41951;49.022;12.066;2024-03-07T00:34:13;42.22;;;23.90;;
56075;SDS011;41951;49.022;12.066;2024-03-07T00:36:41;38.53;;;21.75;;
56075;SDS011;41951;49.022;12.066;2024-03-07T00:39:11;43.72;;;23.58;;
56075;SDS011;41951;49.022;12.066;2024-03-07T00:41:40;41.70;;;22.52;;
56075;SDS011;41951;49.022;12.066;2024-03-07T00:44:06;43.08;;;21.73;;
56075;SDS011;41951;49.022;12.066;2024-03-07T00:46:34;39.17;;;21.25;;
56075;SDS011;41951;49.022;12.066;2024-03-07T00:49:03;38.70;;;20.98;;
56075;SDS011;41951;49.022;12.066;2024-03-07T00:51:30;38.83;;;22.13;;
56075;SDS011;41951;49.022;12.066;2024-03-07T00:53:55;37.10;;;21.27;;
56075;SDS011;41951;49.022;12.066;2024-03-07T00:56:21;38.78;;;21.55;;
56075;SDS011;41951;49.022;12.066;2024-03-07T00:58:50;40.05;;;22.40;;
56075;SDS011;41951;49.022;12.066;2024-03-07T01:01:16;43.95;;;22.30;;
56075;SDS011;41951;49.022;12.066;2024-03-07T01:03:43;35.85;;;21.65;;
56075;SDS011;41951;49.022;12.066;2024-03-07T01:06:09;40.63;;;22.58;;
56075;SDS011;41951;49.022;12.066;2024-03-07T01:08:35;37.03;;;20.42;;
56075;SDS011;41951;49.022;12.066;2024-03-07T01:11:02;38.50;;;21.95;;
56075;SDS011;41951;49.022;12.066;2024-03-07T01:13:34;38.63;;;22.15;;
56075;SDS011;41951;49.022;12.066;2024-03-07T01:16:01;38.55;;;21.88;;
56075;SDS011;41951;49.022;12.066;2024-03-07T01:18:27;41.58;;;22.23;;
56075;SDS011;41951;49.022;12.066;2024-03-07T01:20:52;39.58;;;22.00;;
56075;SDS011;41951;49.022;12.066;2024-03-07T01:23:18;39.03;;;22.50;;
56075;SDS011;41951;49.022;12.066;2024-03-07T01:25:43;40.30;;;21.67;;
56075;SDS011;41951;49.022;12.066;2024-03-07T01:28:09;41.05;;;22.75;;
56075;SDS011;41951;49.022;12.066;2024-03-07T01:30:37;40.38;;;21.90;;
56075;SDS011;41951;49.022;12.066;2024-03-07T01:33:03;38.20;;;21.50;;
56075;SDS011;41951;49.022;12.066;2024-03-07T01:35:28;39.05;;;22.23;;
56075;SDS011;41951;49.022;12.066;2024-03-07T01:37:54;38.65;;;20.58;;
56075;SDS011;41951;49.022;12.066;2024-03-07T01:40:20;37.28;;;21.38;;
56075;SDS011;41951;49.022;12.066;2024-03-07T01:42:52;38.78;;;21.67;;
56075;SDS011;41951;49.022;12.066;2024-03-07T01:45:17;38.17;;;21.63;;
56075;SDS011;41951;49.022;12.066;2024-03-07T01:47:45;38.88;;;22.23;;
56075;SDS011;41951;49.022;12.066;2024-03-07T01:50:11;43.72;;;22.23;;
56075;SDS011;41951;49.022;12.066;2024-03-07T01:52:39;41.00;;;22.77;;
56075;SDS011;41951;49.022;12.066;2024-03-07T01:55:06;44.65;;;22.65;;
56075;SDS011;41951;49.022;12.066;2024-03-07T01:57:32;44.88;;;23.05;;
56075;SDS011;41951;49.022;12.066;2024-03-07T01:59:59;39.15;;;20.73;;
56075;SDS011;41951;49.022;12.066;2024-03-07T02:02:31;35.58;;;20.27;;
56075;SDS011;41951;49.022;12.066;2024-03-07T02:04:57;36.50;;;20.42;;
56075;SDS011;41951;49.022;12.066;2024-03-07T02:07:23;38.63;;;22.00;;
56075;SDS011;41951;49.022;12.066;2024-03-07T02:09:48;35.20;;;20.25;;
56075;SDS011;41951;49.022;12.066;2024-03-07T02:12:14;39.13;;;20.13;;
56075;SDS011;41951;49.022;12.066;2024-03-07T02:14:42;37.75;;;21.42;;
56075;SDS011;41951;49.022;12.066;2024-03-07T02:17:07;37.60;;;21.65;;
56075;SDS011;41951;49.022;12.066;2024-03-07T02:19:33;38.40;;;21.58;;
56075;SDS011;41951;49.022;12.066;2024-03-07T02:21:58;38.80;;;21.77;;
56075;SDS011;41951;49.022;12.066;2024-03-07T02:24:24;42.97;;;22.50;;
56075;SDS011;41951;49.022;12.066;2024-03-07T02:26:50;42.40;;;22.13;;
56075;SDS011;41951;49.022;12.066;2024-03-07T02:29:17;38.58;;;22.38;;
56075;SDS011;41951;49.022;12.066;2024-03-07T02:31:44;40.08;;;22.55;;
56075;SDS011;41951;49.022;12.066;2024-03-07T02:34:11;39.00;;;21.92;;
56075;SDS011;41951;49.022;12.066;2024-03-07T02:36:37;39.75;;;22.67;;
56075;SDS011;41951;49.022;12.066;2024-03-07T02:39:02;40.33;;;22.77;;
56075;SDS011;41951;49.022;12.066;2024-03-07T02:41:28;45.10;;;23.55;;
56075;SDS011;41951;49.022;12.066;2024-03-07T02:43:53;41.88;;;22.83;;
56075;SDS011;41951;49.022;12.066;2024-03-07T02:46:19;38.90;;;23.55;;
56075;SDS011;41951;49.022;12.066;2024-03-07T02:48:45;50.97;;;23.08;;
56075;SDS011;41951;49.022;12.066;2024-03-07T02:51:10;42.08;;;23.98;;
56075;SDS011;41951;49.022;12.066;2024-03-07T02:53:39;39.83;;;23.02;;
56075;SDS011;41951;49.022;12.066;2024-03-07T02:56:04;44.88;;;23.30;;
56075;SDS011;41951;49.022;12.066;2024-03-07T02:58:34;43.20;;;22.20;;
56075;SDS011;41951;49.022;12.066;2024-03-07T03:01:00;40.35;;;23.02;;
56075;SDS011;41951;49.022;12.066;2024-03-07T03:03:26;41.90;;;22.52;;
56075;SDS011;41951;49.022;12.066;2024-03-07T03:05:52;41.47;;;22.50;;
56075;SDS011;41951;49.022;12.066;2024-03-07T03:08:17;43.50;;;22.88;;
56075;SDS011;41951;49.022;12.066;2024-03-07T03:10:43;42.35;;;23.02;;
56075;SDS011;41951;49.022;12.066;2024-03-07T03:13:09;45.13;;;24.02;;
56075;SDS011;41951;49.022;12.066;2024-03-07T03:15:35;41.50;;;22.52;;
56075;SDS011;41951;49.022;12.066;2024-03-07T03:18:03;46.25;;;24.77;;
56075;SDS011;41951;49.022;12.066;2024-03-07T03:20:30;42.20;;;22.55;;
56075;SDS011;41951;49.022;12.066;2024-03-07T03:23:00;46.50;;;23.88;;
56075;SDS011;41951;49.022;12.066;2024-03-07T03:25:28;40.80;;;23.00;;
56075;SDS011;41951;49.022;12.066;2024-03-07T03:27:53;43.78;;;23.98;;
56075;SDS011;41951;49.022;12.066;2024-03-07T03:30:19;45.28;;;24.17;;
56075;SDS011;41951;49.022;12.066;2024-03-07T03:32:49;44.33;;;21.83;;
56075;SDS011;41951;49.022;12.066;2024-03-07T03:35:15;47.25;;;24.58;;
56075;SDS011;41951;49.022;12.066;2024-03-07T03:37:43;41.22;;;23.35;;
56075;SDS011;41951;49.022;12.066;2024-03-07T03:40:09;43.15;;;22.98;;
56075;SDS011;41951;49.022;12.066;2024-03-07T03:42:36;43.83;;;23.10;;
56075;SDS011;41951;49.022;12.066;2024-03-07T03:45:03;43.65;;;22.88;;
56075;SDS011;41951;49.022;12.066;2024-03-07T03:47:33;40.75;;;22.75;;
56075;SDS011;41951;49.022;12.066;2024-03-07T03:50:00;44.88;;;23.65;;
56075;SDS011;41951;49.022;12.066;2024-03-07T03:52:32;43.72;;;23.33;;
56075;SDS011;41951;49.022;12.066;2024-03-07T03:55:00;39.75;;;22.48;;
56075;SDS011;41951;49.022;12.066;2024-03-07T03:57:27;43.60;;;23.35;;
56075;SDS011;41951;49.022;12.066;2024-03-07T03:59:53;43.45;;;21.65;;
56075;SDS011;41951;49.022;12.066;2024-03-07T04:02:20;43.28;;;22.92;;
56075;SDS011;41951;49.022;12.066;2024-03-07T04:04:47;44.00;;;22.80;;
56075;SDS011;41951;49.022;12.066;2024-03-07T04:07:17;41.95;;;23.52;;
56075;SDS011;41951;49.022;12.066;2024-03-07T04:09:43;42.25;;;23.20;;
56075;SDS011;41951;49.022;12.066;2024-03-07T04:12:10;40.63;;;23.27;;
56075;SDS011;41951;49.022;12.066;2024-03-07T04:14:39;42.55;;;22.63;;
56075;SDS011;41951;49.022;12.066;2024-03-07T04:17:07;45.88;;;24.63;;
56075;SDS011;41951;49.022;12.066;2024-03-07T04:19:36;40.47;;;21.42;;
56075;SDS011;41951;49.022;12.066;2024-03-07T04:22:03;41.58;;;22.52;;
56075;SDS011;41951;49.022;12.066;2024-03-07T04:24:29;42.60;;;23.33;;
56075;SDS011;41951;49.022;12.066;2024-03-07T04:26:59;40.50;;;22.27;;
56075;SDS011;41951;49.022;12.066;2024-03-07T04:29:25;38.58;;;21.17;;
56075;SDS011;41951;49.022;12.066;2024-03-07T04:31:51;41.55;;;22.30;;
56075;SDS011;41951;49.022;12.066;2024-03-07T04:34:17;42.55;;;23.55;;
56075;SDS011;41951;49.022;12.066;2024-03-07T04:36:43;39.85;;;22.55;;
56075;SDS011;41951;49.022;12.066;2024-03-07T04:39:09;45.28;;;22.23;;
56075;SDS011;41951;49.022;12.066;2024-03-07T04:41:47;39.33;;;21.35;;
56075;SDS011;41951;49.022;12.066;2024-03-07T04:44:13;42.92;;;21.88;;
56075;SDS011;41951;49.022;12.066;2024-03-07T04:46:39;44.05;;;23.58;;
56075;SDS011;41951;49.022;12.066;2024-03-07T04:49:07;43.17;;;22.25;;
56075;SDS011;41951;49.022;12.066;2024-03-07T04:51:34;42.88;;;22.90;;
56075;SDS011;41951;49.022;12.066;2024-03-07T04:53:59;38.28;;;20.70;;
56075;SDS011;41951;49.022;12.066;2024-03-07T04:56:25;39.95;;;21.52;;
56075;SDS011;41951;49.022;12.066;2024-03-07T04:58:50;39.03;;;21.40;;
56075;SDS011;41951;49.022;12.066;2024-03-07T05:01:17;48.78;;;24.40;;
56075;SDS011;41951;49.022;12.066;2024-03-07T05:03:43;43.38;;;23.05;;
56075;SDS011;41951;49.022;12.066;2024-03-07T05:06:08;43.42;;;22.58;;
56075;SDS011;41951;49.022;12.066;2024-03-07T05:08:34;37.88;;;21.83;;
56075;SDS011;41951;49.022;12.066;2024-03-07T05:10:59;44.03;;;22.48;;
56075;SDS011;41951;49.022;12.066;2024-03-07T05:13:25;39.70;;;21.95;;
56075;SDS011;41951;49.022;12.066;2024-03-07T05:15:51;38.08;;;21.13;;
56075;SDS011;41951;49.022;12.066;2024-03-07T05:18:18;43.50;;;22.05;;
56075;SDS011;41951;49.022;12.066;2024-03-07T05:20:43;45.05;;;22.30;;
56075;SDS011;41951;49.022;12.066;2024-03-07T05:23:09;40.40;;;21.40;;
56075;SDS011;41951;49.022;12.066;2024-03-07T05:25:35;44.72;;;21.75;;
56075;SDS011;41951;49.022;12.066;2024-03-07T05:28:01;43.08;;;21.25;;
56075;SDS011;41951;49.022;12.066;2024-03-07T05:30:27;41.67;;;21.20;;
56075;SDS011;41951;49.022;12.066;2024-03-07T05:32:53;42.25;;;22.63;;
56075;SDS011;41951;49.022;12.066;2024-03-07T05:35:19;42.92;;;21.63;;
56075;SDS011;41951;49.022;12.066;2024-03-07T05:37:45;41.45;;;22.38;;
56075;SDS011;41951;49.022;12.066;2024-03-07T05:40:12;40.25;;;21.60;;
56075;SDS011;41951;49.022;12.066;2024-03-07T05:42:38;47.10;;;22.67;;
56075;SDS011;41951;49.022;12.066;2024-03-07T05:45:03;39.22;;;20.95;;
56075;SDS011;41951;49.022;12.066;2024-03-07T05:47:32;41.28;;;21.58;;
56075;SDS011;41951;49.022;12.066;2024-03-07T05:49:58;36.03;;;20.40;;
56075;SDS011;41951;49.022;12.066;2024-03-07T05:52:24;43.15;;;21.95;;
56075;SDS011;41951;49.022;12.066;2024-03-07T05:54:49;41.35;;;21.10;;
56075;SDS011;41951;49.022;12.066;2024-03-07T05:57:15;38.63;;;21.08;;
56075;SDS011;41951;49.022;12.066;2024-03-07T05:59:41;40.00;;;21.80;;
56075;SDS011;41951;49.022;12.066;2024-03-07T06:02:06;42.40;;;20.65;;
56075;SDS011;41951;49.022;12.066;2024-03-07T06:04:32;38.58;;;20.25;;
56075;SDS011;41951;49.022;12.066;2024-03-07T06:06:59;41.97;;;20.15;;
56075;SDS011;41951;49.022;12.066;2024-03-07T06:09:24;40.90;;;20.75;;
56075;SDS011;41951;49.022;12.066;2024-03-07T06:11:51;40.97;;;22.58;;
56075;SDS011;41951;49.022;12.066;2024-03-07T06:14:17;41.85;;;22.02;;
56075;SDS011;41951;49.022;12.066;2024-03-07T06:16:43;43.17;;;21.02;;
56075;SDS011;41951;49.022;12.066;2024-03-07T06:19:08;43.72;;;22.13;;
56075;SDS011;41951;49.022;12.066;2024-03-07T06:21:35;40.45;;;22.30;;
56075;SDS011;41951;49.022;12.066;2024-03-07T06:24:02;47.58;;;21.48;;
56075;SDS011;41951;49.022;12.066;2024-03-07T06:26:29;39.60;;;21.52;;
56075;SDS011;41951;49.022;12.066;2024-03-07T06:29:24;40.20;;;20.63;;
56075;SDS011;41951;49.022;12.066;2024-03-07T06:31:50;38.10;;;21.10;;
56075;SDS011;41951;49.022;12.066;2024-03-07T06:34:18;42.80;;;20.90;;
56075;SDS011;41951;49.022;12.066;2024-03-07T06:36:44;40.22;;;20.50;;
56075;SDS011;41951;49.022;12.066;2024-03-07T06:39:10;40.30;;;21.92;;
56075;SDS011;41951;49.022;12.066;2024-03-07T06:41:35;36.65;;;20.33;;
56075;SDS011;41951;49.022;12.066;2024-03-07T06:44:02;42.03;;;21.77;;
56075;SDS011;41951;49.022;12.066;2024-03-07T06:46:28;38.45;;;20.92;;
56075;SDS011;41951;49.022;12.066;2024-03-07T06:48:54;42.42;;;21.50;;
56075;SDS011;41951;49.022;12.066;2024-03-07T06:51:21;37.00;;;21.13;;
56075;SDS011;41951;49.022;12.066;2024-03-07T06:53:47;40.50;;;19.67;;
56075;SDS011;41951;49.022;12.066;2024-03-07T06:56:14;37.45;;;20.50;;
56075;SDS011;41951;49.022;12.066;2024-03-07T06:58:40;36.08;;;20.30;;
56075;SDS011;41951;49.022;12.066;2024-03-07T07:01:05;39.97;;;20.70;;
56075;SDS011;41951;49.022;12.066;2024-03-07T07:03:34;37.30;;;19.52;;
56075;SDS011;41951;49.022;12.066;2024-03-07T07:06:01;37.60;;;18.90;;
56075;SDS011;41951;49.022;12.066;2024-03-07T07:08:26;36.92;;;20.33;;
56075;SDS011;41951;49.022;12.066;2024-03-07T07:10:54;36.40;;;18.70;;
56075;SDS011;41951;49.022;12.066;2024-03-07T07:13:21;39.10;;;19.65;;
56075;SDS011;41951;49.022;12.066;2024-03-07T07:15:47;35.17;;;19.85;;
56075;SDS011;41951;49.022;12.066;2024-03-07T07:18:13;35.08;;;20.30;;
56075;SDS011;41951;49.022;12.066;2024-03-07T07:20:40;39.33;;;20.20;;
56075;SDS011;41951;49.022;12.066;2024-03-07T07:23:06;36.20;;;18.73;;
56075;SDS011;41951;49.022;12.066;2024-03-07T07:25:32;39.28;;;20.13;;
56075;SDS011;41951;49.022;12.066;2024-03-07T07:27:57;33.20;;;17.52;;
56075;SDS011;41951;49.022;12.066;2024-03-07T07:30:23;35.65;;;19.98;;
56075;SDS011;41951;49.022;12.066;2024-03-07T07:32:50;36.83;;;18.45;;
56075;SDS011;41951;49.022;12.066;2024-03-07T07:35:16;36.60;;;19.60;;
56075;SDS011;41951;49.022;12.066;2024-03-07T07:37:46;39.72;;;19.23;;
56075;SDS011;41951;49.022;12.066;2024-03-07T07:42:43;34.47;;;17.05;;
56075;SDS011;41951;49.022;12.066;2024-03-07T07:45:11;34.65;;;18.00;;
56075;SDS011;41951;49.022;12.066;2024-03-07T07:47:58;36.50;;;18.08;;
56075;SDS011;41951;49.022;12.066;2024-03-07T07:50:24;37.90;;;17.60;;
56075;SDS011;41951;49.022;12.066;2024-03-07T07:52:56;35.67;;;18.38;;
56075;SDS011;41951;49.022;12.066;2024-03-07T08:00:20;33.00;;;17.37;;
56075;SDS011;41951;49.022;12.066;2024-03-07T08:03:03;33.35;;;17.17;;
56075;SDS011;41951;49.022;12.066;2024-03-07T08:05:34;35.22;;;17.80;;
56075;SDS011;41951;49.022;12.066;2024-03-07T08:08:04;34.08;;;17.35;;
56075;SDS011;41951;49.022;12.066;2024-03-07T08:10:31;31.60;;;17.15;;
56075;SDS011;41951;49.022;12.066;2024-03-07T08:12:58;35.40;;;17.55;;
56075;SDS011;41951;49.022;12.066;2024-03-07T08:15:25;32.55;;;18.27;;
56075;SDS011;41951;49.022;12.066;2024-03-07T08:17:53;37.45;;;17.42;;
56075;SDS011;41951;49.022;12.066;2024-03-07T08:20:20;35.00;;;18.23;;
56075;SDS011;41951;49.022;12.066;2024-03-07T08:22:47;34.28;;;18.27;;
56075;SDS011;41951;49.022;12.066;2024-03-07T08:25:16;35.95;;;18.55;;
56075;SDS011;41951;49.022;12.066;2024-03-07T08:27:44;35.17;;;18.67;;
56075;SDS011;41951;49.022;12.066;2024-03-07T08:30:13;31.95;;;15.90;;
56075;SDS011;41951;49.022;12.066;2024-03-07T08:32:40;32.70;;;17.02;;
56075;SDS011;41951;49.022;12.066;2024-03-07T08:35:10;34.50;;;17.55;;
56075;SDS011;41951;49.022;12.066;2024-03-07T08:37:37;31.23;;;17.45;;
56075;SDS011;41951;49.022;12.066;2024-03-07T08:40:03;31.08;;;16.67;;
56075;SDS011;41951;49.022;12.066;2024-03-07T08:42:33;36.15;;;16.98;;
56075;SDS011;41951;49.022;12.066;2024-03-07T08:45:00;33.67;;;17.95;;
56075;SDS011;41951;49.022;12.066;2024-03-07T08:47:29;29.83;;;17.02;;
56075;SDS011;41951;49.022;12.066;2024-03-07T08:50:04;31.88;;;16.30;;
56075;SDS011;41951;49.022;12.066;2024-03-07T08:52:33;30.63;;;16.63;;
56075;SDS011;41951;49.022;12.066;2024-03-07T08:55:04;32.88;;;16.98;;
56075;SDS011;41951;49.022;12.066;2024-03-07T08:57:30;32.03;;;15.15;;
56075;SDS011;41951;49.022;12.066;2024-03-07T08:59:56;29.50;;;15.90;;
56075;SDS011;41951;49.022;12.066;2024-03-07T09:02:22;30.45;;;16.55;;
56075;SDS011;41951;49.022;12.066;2024-03-07T09:04:47;34.17;;;16.80;;
56075;SDS011;41951;49.022;12.066;2024-03-07T09:07:13;34.63;;;17.33;;
56075;SDS011;41951;49.022;12.066;2024-03-07T09:09:42;31.55;;;16.73;;
56075;SDS011;41951;49.022;12.066;2024-03-07T09:12:08;35.63;;;16.58;;
56075;SDS011;41951;49.022;12.066;2024-03-07T09:14:34;35.17;;;17.52;;
56075;SDS011;41951;49.022;12.066;2024-03-07T09:17:00;31.42;;;15.68;;
56075;SDS011;41951;49.022;12.066;2024-03-07T09:19:26;32.17;;;16.23;;
56075;SDS011;41951;49.022;12.066;2024-03-07T09:21:53;29.55;;;15.35;;
56075;SDS011;41951;49.022;12.066;2024-03-07T09:24:19;31.17;;;16.02;;
56075;SDS011;41951;49.022;12.066;2024-03-07T09:26:51;30.50;;;15.40;;
56075;SDS011;41951;49.022;12.066;2024-03-07T09:29:17;32.92;;;15.30;;
56075;SDS011;41951;49.022;12.066;2024-03-07T09:31:45;30.70;;;15.13;;
56075;SDS011;41951;49.022;12.066;2024-03-07T09:34:12;32.05;;;16.08;;
56075;SDS011;41951;49.022;12.066;2024-03-07T09:36:41;28.70;;;14.82;;
56075;SDS011;41951;49.022;12.066;2024-03-07T09:39:07;34.75;;;15.30;;
56075;SDS011;41951;49.022;12.066;2024-03-07T09:41:34;29.85;;;14.82;;
56075;SDS011;41951;49.022;12.066;2024-03-07T09:44:00;31.42;;;15.00;;
56075;SDS011;41951;49.022;12.066;2024-03-07T09:46:27;34.17;;;16.17;;
56075;SDS011;41951;49.022;12.066;2024-03-07T09:48:53;32.58;;;16.17;;
56075;SDS011;41951;49.022;12.066;2024-03-07T09:51:20;32.83;;;16.08;;
56075;SDS011;41951;49.022;12.066;2024-03-07T09:53:49;31.42;;;14.55;;
56075;SDS011;41951;49.022;12.066;2024-03-07T09:56:26;32.28;;;15.88;;
56075;SDS011;41951;49.022;12.066;2024-03-07T09:58:57;30.77;;;14.70;;
56075;SDS011;41951;49.022;12.066;2024-03-07T10:01:25;30.73;;;14.60;;
56075;SDS011;41951;49.022;12.066;2024-03-07T10:03:58;27.02;;;14.75;;
56075;SDS011;41951;49.022;12.066;2024-03-07T10:06:35;30.38;;;14.75;;
56075;SDS011;41951;49.022;12.066;2024-03-07T10:09:01;27.27;;;15.40;;
56075;SDS011;41951;49.022;12.066;2024-03-07T10:11:28;26.38;;;14.55;;
56075;SDS011;41951;49.022;12.066;2024-03-07T10:13:54;24.38;;;13.75;;
56075;SDS011;41951;49.022;12.066;2024-03-07T10:16:20;25.42;;;14.00;;
56075;SDS011;41951;49.022;12.066;2024-03-07T10:18:46;30.02;;;14.80;;
56075;SDS011;41951;49.022;12.066;2024-03-07T10:21:14;27.85;;;13.77;;
56075;SDS011;41951;49.022;12.066;2024-03-07T10:23:42;26.23;;;14.25;;
56075;SDS011;41951;49.022;12.066;2024-03-07T10:26:07;25.42;;;13.02;;
56075;SDS011;41951;49.022;12.066;2024-03-07T10:28:35;21.30;;;12.57;;
56075;SDS011;41951;49.022;12.066;2024-03-07T10:31:00;24.88;;;12.88;;
56075;SDS011;41951;49.022;12.066;2024-03-07T10:33:28;24.10;;;12.02;;
56075;SDS011;41951;49.022;12.066;2024-03-07T10:35:55;24.45;;;13.00;;
56075;SDS011;41951;49.022;12.066;2024-03-07T10:38:21;25.35;;;13.23;;
56075;SDS011;41951;49.022;12.066;2024-03-07T10:40:47;25.77;;;13.10;;
56075;SDS011;41951;49.022;12.066;2024-03-07T10:43:18;25.17;;;13.60;;
56075;SDS011;41951;49.022;12.066;2024-03-07T10:45:46;22.67;;;12.13;;
56075;SDS011;41951;49.022;12.066;2024-03-07T10:48:13;22.05;;;12.10;;
56075;SDS011;41951;49.022;12.066;2024-03-07T10:59:19;24.92;;;12.48;;
56075;SDS011;41951;49.022;12.066;2024-03-07T11:04:24;25.45;;;12.90;;
56075;SDS011;41951;49.022;12.066;2024-03-07T11:06:50;22.10;;;11.45;;
56075;SDS011;41951;49.022;12.066;2024-03-07T11:09:16;18.45;;;11.63;;
56075;SDS011;41951;49.022;12.066;2024-03-07T11:11:48;18.00;;;11.48;;
56075;SDS011;41951;49.022;12.066;2024-03-07T11:14:14;22.23;;;11.85;;
56075;SDS011;41951;49.022;12.066;2024-03-07T11:16:41;24.60;;;12.40;;
56075;SDS011;41951;49.022;12.066;2024-03-07T11:19:18;22.30;;;12.52;;
56075;SDS011;41951;49.022;12.066;2024-03-07T11:21:44;22.30;;;11.90;;
56075;SDS011;41951;49.022;12.066;2024-03-07T11:24:12;24.02;;;11.98;;
56075;SDS011;41951;49.022;12.066;2024-03-07T11:26:53;22.10;;;11.68;;
56075;SDS011;41951;49.022;12.066;2024-03-07T11:32:12;24.80;;;13.33;;
56075;SDS011;41951;49.022;12.066;2024-03-07T11:34:40;20.67;;;11.40;;
56075;SDS011;41951;49.022;12.066;2024-03-07T11:37:06;19.77;;;11.60;;
56075;SDS011;41951;49.022;12.066;2024-03-07T11:39:45;21.98;;;12.30;;
56075;SDS011;41951;49.022;12.066;2024-03-07T11:42:25;20.15;;;11.25;;
56075;SDS011;41951;49.022;12.066;2024-03-07T11:44:51;21.60;;;11.38;;
56075;SDS011;41951;49.022;12.066;2024-03-07T11:47:21;20.67;;;11.07;;
56075;SDS011;41951;49.022;12.066;2024-03-07T11:49:48;19.67;;;10.98;;
56075;SDS011;41951;49.022;12.066;2024-03-07T11:52:14;18.33;;;11.20;;
56075;SDS011;41951;49.022;12.066;2024-03-07T11:54:42;21.90;;;11.60;;
56075;SDS011;41951;49.022;12.066;2024-03-07T11:57:19;18.23;;;11.13;;
56075;SDS011;41951;49.022;12.066;2024-03-07T11:59:51;21.00;;;11.82;;
56075;SDS011;41951;49.022;12.066;2024-03-07T12:02:17;20.08;;;11.00;;
56075;SDS011;41951;49.022;12.066;2024-03-07T12:04:46;20.95;;;11.73;;
56075;SDS011;41951;49.022;12.066;2024-03-07T12:07:13;20.02;;;11.88;;
56075;SDS011;41951;49.022;12.066;2024-03-07T12:09:42;28.40;;;12.52;;
56075;SDS011;41951;49.022;12.066;2024-03-07T12:12:10;20.90;;;11.00;;
56075;SDS011;41951;49.022;12.066;2024-03-07T12:14:37;18.98;;;10.48;;
56075;SDS011;41951;49.022;12.066;2024-03-07T12:17:03;17.33;;;10.70;;
56075;SDS011;41951;49.022;12.066;2024-03-07T12:19:34;20.10;;;10.75;;
56075;SDS011;41951;49.022;12.066;2024-03-07T12:22:00;17.23;;;9.90;;
56075;SDS011;41951;49.022;12.066;2024-03-07T12:24:27;16.67;;;9.98;;
56075;SDS011;41951;49.022;12.066;2024-03-07T12:26:53;18.92;;;11.13;;
56075;SDS011;41951;49.022;12.066;2024-03-07T12:29:29;19.75;;;10.63;;
56075;SDS011;41951;49.022;12.066;2024-03-07T12:31:55;17.05;;;9.90;;
56075;SDS011;41951;49.022;12.066;2024-03-07T12:34:21;17.23;;;10.80;;
56075;SDS011;41951;49.022;12.066;2024-03-07T12:36:51;19.80;;;10.15;;
56075;SDS011;41951;49.022;12.066;2024-03-07T12:39:24;17.92;;;10.32;;
56075;SDS011;41951;49.022;12.066;2024-03-07T12:41:58;18.35;;;10.85;;
56075;SDS011;41951;49.022;12.066;2024-03-07T12:44:23;17.08;;;9.32;;
56075;SDS011;41951;49.022;12.066;2024-03-07T12:46:52;17.52;;;9.68;;
56075;SDS011;41951;49.022;12.066;2024-03-07T12:49:24;16.92;;;10.52;;
56075;SDS011;41951;49.022;12.066;2024-03-07T12:51:53;17.65;;;9.57;;
56075;SDS011;41951;49.022;12.066;2024-03-07T12:54:19;18.05;;;10.43;;
56075;SDS011;41951;49.022;12.066;2024-03-07T12:56:46;19.80;;;11.13;;
56075;SDS011;41951;49.022;12.066;2024-03-07T12:59:12;17.35;;;10.18;;
56075;SDS011;41951;49.022;12.066;2024-03-07T13:01:38;18.73;;;10.70;;
56075;SDS011;41951;49.022;12.066;2024-03-07T13:04:07;20.33;;;10.40;;
56075;SDS011;41951;49.022;12.066;2024-03-07T13:06:35;17.88;;;9.95;;
56075;SDS011;41951;49.022;12.066;2024-03-07T13:09:00;16.05;;;9.80;;
56075;SDS011;41951;49.022;12.066;2024-03-07T13:11:27;15.40;;;9.18;;
56075;SDS011;41951;49.022;12.066;2024-03-07T13:13:55;19.15;;;10.05;;
56075;SDS011;41951;49.022;12.066;2024-03-07T13:16:21;19.92;;;10.63;;
56075;SDS011;41951;49.022;12.066;2024-03-07T13:18:52;19.33;;;10.80;;
56075;SDS011;41951;49.022;12.066;2024-03-07T13:21:20;18.90;;;11.07;;
56075;SDS011;41951;49.022;12.066;2024-03-07T13:23:46;16.95;;;9.30;;
56075;SDS011;41951;49.022;12.066;2024-03-07T13:26:12;16.80;;;10.18;;
56075;SDS011;41951;49.022;12.066;2024-03-07T13:28:44;18.87;;;10.67;;
56075;SDS011;41951;49.022;12.066;2024-03-07T13:31:10;19.83;;;10.35;;
56075;SDS011;41951;49.022;12.066;2024-03-07T13:33:37;17.88;;;9.52;;
56075;SDS011;41951;49.022;12.066;2024-03-07T13:36:02;22.00;;;11.38;;
56075;SDS011;41951;49.022;12.066;2024-03-07T13:38:29;19.70;;;11.13;;
56075;SDS011;41951;49.022;12.066;2024-03-07T13:40:55;18.80;;;10.40;;
56075;SDS011;41951;49.022;12.066;2024-03-07T13:43:22;18.02;;;10.48;;
56075;SDS011;41951;49.022;12.066;2024-03-07T13:45:48;19.92;;;10.52;;
56075;SDS011;41951;49.022;12.066;2024-03-07T13:48:14;22.90;;;9.95;;
56075;SDS011;41951;49.022;12.066;2024-03-07T13:50:42;18.45;;;10.80;;
56075;SDS011;41951;49.022;12.066;2024-03-07T13:53:14;19.17;;;10.15;;
56075;SDS011;41951;49.022;12.066;2024-03-07T13:55:56;18.87;;;9.97;;
56075;SDS011;41951;49.022;12.066;2024-03-07T13:59:04;18.83;;;10.73;;
56075;SDS011;41951;49.022;12.066;2024-03-07T14:01:57;19.73;;;10.85;;
56075;SDS011;41951;49.022;12.066;2024-03-07T14:27:37;19.85;;;10.48;;
56075;SDS011;41951;49.022;12.066;2024-03-07T14:33:08;19.73;;;10.40;;
56075;SDS011;41951;49.022;12.066;2024-03-07T14:38:51;25.77;;;13.35;;
56075;SDS011;41951;49.022;12.066;2024-03-07T14:41:19;20.35;;;10.88;;
56075;SDS011;41951;49.022;12.066;2024-03-07T14:44:01;30.55;;;16.63;;
56075;SDS011;41951;49.022;12.066;2024-03-07T14:46:27;21.55;;;12.25;;
56075;SDS011;41951;49.022;12.066;2024-03-07T14:48:52;20.52;;;11.88;;
56075;SDS011;41951;49.022;12.066;2024-03-07T14:51:18;22.63;;;11.02;;
56075;SDS011;41951;49.022;12.066;2024-03-07T14:53:44;20.05;;;11.15;;
56075;SDS011;41951;49.022;12.066;2024-03-07T14:56:10;20.33;;;10.48;;
56075;SDS011;41951;49.022;12.066;2024-03-07T14:58:36;18.25;;;10.00;;
56075;SDS011;41951;49.022;12.066;2024-03-07T15:01:03;16.45;;;9.80;;
56075;SDS011;41951;49.022;12.066;2024-03-07T15:03:31;17.92;;;10.38;;